createdAt,value
2022-11-16T00:02:29.988Z,4.50
2022-11-16T00:04:58.307Z,4.50
2022-11-16T00:07:26.477Z,4.50
2022-11-16T00:09:54.634Z,4.50
2022-11-16T00:12:24.298Z,4.50
2022-11-16T00:14:52.365Z,4.50
2022-11-16T00:17:20.508Z,4.50
2022-11-16T00:19:48.756Z,4.50
2022-11-16T00:22:16.840Z,4.40
2022-11-16T00:24:45.098Z,4.40
2022-11-16T00:27:13.238Z,4.40
2022-11-16T00:29:42.726Z,4.40
2022-11-16T00:32:13.428Z,4.40
2022-11-16T00:34:41.860Z,4.50
2022-11-16T00:37:09.904Z,4.50
2022-11-16T00:39:38.058Z,4.50
2022-11-16T00:42:06.350Z,4.40
2022-11-16T00:44:34.436Z,4.50
2022-11-16T00:47:03.979Z,4.40
2022-11-16T00:49:32.128Z,4.40
2022-11-16T00:52:00.192Z,4.40
2022-11-16T00:54:28.462Z,4.40
2022-11-16T00:56:56.501Z,4.40
2022-11-16T00:59:24.696Z,4.40
2022-11-16T01:01:52.805Z,4.40
2022-11-16T01:04:22.373Z,4.40
2022-11-16T01:06:50.630Z,4.40
2022-11-16T01:09:18.900Z,4.40
2022-11-16T01:12:04.689Z,4.30
2022-11-16T01:14:32.835Z,4.30
2022-11-16T01:17:04.290Z,4.30
2022-11-16T01:19:33.956Z,4.40
2022-11-16T01:22:02.140Z,4.30
2022-11-16T01:24:30.342Z,4.30
2022-11-16T01:26:58.735Z,4.30
2022-11-16T01:29:27.400Z,4.30
2022-11-16T01:31:55.971Z,4.30
2022-11-16T01:34:24.312Z,4.30
2022-11-16T01:36:53.816Z,4.30
2022-11-16T01:39:22.007Z,4.30
2022-11-16T01:41:50.189Z,4.30
2022-11-16T01:44:36.590Z,4.30
2022-11-16T01:47:11.052Z,4.20
2022-11-16T01:49:42.629Z,4.20
2022-11-16T01:52:14.460Z,4.20
2022-11-16T01:54:43.691Z,4.10
2022-11-16T01:57:14.376Z,4.10
2022-11-16T01:59:43.505Z,4.10
2022-11-16T02:02:11.632Z,4.10
2022-11-16T02:04:39.796Z,4.10
2022-11-16T02:07:13.192Z,4.10
2022-11-16T02:09:55.791Z,4.00
2022-11-16T02:12:44.895Z,4.00
2022-11-16T02:15:17.201Z,4.00
2022-11-16T02:17:49.717Z,4.00
2022-11-16T02:20:32.649Z,4.00
2022-11-16T02:23:11.365Z,4.00
2022-11-16T02:25:46.574Z,4.00
2022-11-16T02:28:21.791Z,4.00
2022-11-16T02:30:55.251Z,4.10
2022-11-16T02:33:26.556Z,4.10
2022-11-16T02:35:56.460Z,4.10
2022-11-16T02:38:26.446Z,4.10
2022-11-16T02:40:56.203Z,4.00
2022-11-16T02:43:29.690Z,4.00
2022-11-16T02:46:01.806Z,4.00
2022-11-16T02:48:35.708Z,4.10
2022-11-16T02:51:04.374Z,4.10
2022-11-16T02:53:35.129Z,4.10
2022-11-16T02:56:03.261Z,4.00
2022-11-16T02:58:31.662Z,4.00
2022-11-16T03:01:02.402Z,4.00
2022-11-16T03:03:34.756Z,4.00
2022-11-16T03:06:04.500Z,4.00
2022-11-16T03:08:33.438Z,4.00
2022-11-16T03:11:20.625Z,4.00
2022-11-16T03:13:50.068Z,4.10
2022-11-16T03:16:21.397Z,4.10
2022-11-16T03:18:51.114Z,4.10
2022-11-16T03:21:26.116Z,4.10
2022-11-16T03:23:54.380Z,4.10
2022-11-16T03:26:25.213Z,4.20
2022-11-16T03:28:57.463Z,4.10
2022-11-16T03:31:28.944Z,4.20
2022-11-16T03:33:58.551Z,4.10
2022-11-16T03:36:28.497Z,4.10
2022-11-16T03:38:59.529Z,4.10
2022-11-16T03:41:28.436Z,4.10
2022-11-16T03:43:57.991Z,4.10
2022-11-16T03:46:27.564Z,4.10
2022-11-16T03:48:57.934Z,4.10
2022-11-16T03:51:26.580Z,4.10
2022-11-16T03:53:54.825Z,4.10
2022-11-16T03:56:22.860Z,4.10
2022-11-16T03:58:53.693Z,4.00
2022-11-16T04:01:21.813Z,4.00
2022-11-16T04:03:51.265Z,4.00
2022-11-16T04:06:36.762Z,4.00
2022-11-16T04:09:24.800Z,4.10
2022-11-16T04:12:10.132Z,4.10
2022-11-16T04:14:55.920Z,4.10
2022-11-16T04:17:48.155Z,4.20
2022-11-16T04:20:35.080Z,4.20
2022-11-16T04:23:23.275Z,4.20
2022-11-16T04:25:51.973Z,4.20
2022-11-16T04:28:20.867Z,4.20
2022-11-16T04:31:07.349Z,4.20
2022-11-16T04:33:53.100Z,4.20
2022-11-16T04:36:40.347Z,4.20
2022-11-16T04:39:08.441Z,4.20
2022-11-16T04:41:54.011Z,4.10
2022-11-16T04:44:27.255Z,4.10
2022-11-16T04:47:09.112Z,4.10
2022-11-16T04:49:37.161Z,4.10
2022-11-16T04:52:06.751Z,4.00
2022-11-16T04:54:34.956Z,4.00
2022-11-16T04:57:03.501Z,3.90
2022-11-16T04:59:31.574Z,3.90
2022-11-16T05:02:11.649Z,3.90
2022-11-16T05:04:40.550Z,3.90
2022-11-16T05:07:12.087Z,4.00
2022-11-16T05:09:42.887Z,4.00
2022-11-16T05:12:11.436Z,4.10
2022-11-16T05:14:39.532Z,4.10
2022-11-16T05:17:07.781Z,4.10
2022-11-16T05:19:53.388Z,4.00
2022-11-16T05:22:23.155Z,4.00
2022-11-16T05:24:51.395Z,4.00
2022-11-16T05:27:20.398Z,4.00
2022-11-16T05:29:49.629Z,3.90
2022-11-16T05:32:17.933Z,3.90
2022-11-16T05:34:46.321Z,3.90
2022-11-16T05:37:15.717Z,3.90
2022-11-16T05:39:45.292Z,3.90
2022-11-16T05:42:13.448Z,3.90
2022-11-16T05:44:41.545Z,3.90
2022-11-16T05:47:09.806Z,3.90
2022-11-16T05:49:37.902Z,3.90
2022-11-16T05:52:06.124Z,3.90
2022-11-16T05:54:35.002Z,4.00
2022-11-16T05:57:07.176Z,4.00
2022-11-16T05:59:35.451Z,4.00
2022-11-16T06:02:04.896Z,4.00
2022-11-16T06:04:33.998Z,3.90
2022-11-16T06:07:02.127Z,3.80
2022-11-16T06:09:30.399Z,3.80
2022-11-16T06:11:58.469Z,3.80
2022-11-16T06:14:27.922Z,3.80
2022-11-16T06:16:56.190Z,3.80
2022-11-16T06:19:27.024Z,3.80
2022-11-16T06:21:59.448Z,3.80
2022-11-16T06:24:27.534Z,3.80
2022-11-16T06:26:55.684Z,3.80
2022-11-16T06:29:23.777Z,3.80
2022-11-16T06:31:53.292Z,3.80
2022-11-16T06:34:21.493Z,3.80
2022-11-16T06:36:49.628Z,3.90
2022-11-16T06:39:20.822Z,3.90
2022-11-16T06:41:49.013Z,3.90
2022-11-16T06:44:19.312Z,3.90
2022-11-16T06:46:47.610Z,3.90
2022-11-16T06:49:17.117Z,3.90
2022-11-16T06:51:45.492Z,3.90
2022-11-16T06:54:13.544Z,3.90
2022-11-16T06:56:41.656Z,3.90
2022-11-16T06:59:09.962Z,3.90
2022-11-16T07:01:46.951Z,3.90
2022-11-16T07:04:15.071Z,3.90
2022-11-16T07:06:44.640Z,3.90
2022-11-16T07:09:13.645Z,3.90
2022-11-16T07:11:42.090Z,3.90
2022-11-16T07:14:11.868Z,3.90
2022-11-16T07:16:40.188Z,3.90
2022-11-16T07:19:08.229Z,3.80
2022-11-16T07:21:36.422Z,3.80
2022-11-16T07:24:06.134Z,3.80
2022-11-16T07:26:34.226Z,3.80
2022-11-16T07:29:02.965Z,3.80
2022-11-16T07:31:31.276Z,3.80
2022-11-16T07:34:08.973Z,3.80
2022-11-16T07:36:37.100Z,3.80
2022-11-16T07:39:09.435Z,3.80
2022-11-16T07:41:38.447Z,3.80
2022-11-16T07:44:11.786Z,3.80
2022-11-16T07:46:48.482Z,3.80
2022-11-16T07:49:17.829Z,3.80
2022-11-16T07:51:46.906Z,3.90
2022-11-16T07:54:17.040Z,3.80
2022-11-16T07:56:45.212Z,3.80
2022-11-16T07:59:13.266Z,3.90
2022-11-16T08:01:41.475Z,3.90
2022-11-16T08:04:09.552Z,3.80
2022-11-16T08:06:37.609Z,3.80
2022-11-16T08:09:05.756Z,3.80
2022-11-16T08:11:35.255Z,3.70
2022-11-16T08:14:03.381Z,3.60
2022-11-16T08:16:33.432Z,3.60
2022-11-16T08:19:02.462Z,3.60
2022-11-16T08:21:30.578Z,3.60
2022-11-16T08:23:59.163Z,3.70
2022-11-16T08:26:27.913Z,3.70
2022-11-16T08:28:57.517Z,3.70
2022-11-16T08:31:26.565Z,3.70
2022-11-16T08:33:54.849Z,3.70
2022-11-16T08:36:23.347Z,3.80
2022-11-16T08:38:52.335Z,3.80
2022-11-16T08:41:20.954Z,3.70
2022-11-16T08:43:50.953Z,3.80
2022-11-16T08:46:20.591Z,3.80
2022-11-16T08:48:49.202Z,3.80
2022-11-16T08:51:19.693Z,3.80
2022-11-16T08:53:49.204Z,3.80
2022-11-16T08:56:18.452Z,3.80
2022-11-16T08:58:47.935Z,3.80
2022-11-16T09:01:19.096Z,3.80
2022-11-16T09:03:48.884Z,3.80
2022-11-16T09:06:17.392Z,3.80
2022-11-16T09:08:45.966Z,3.80
2022-11-16T09:11:15.877Z,3.80
2022-11-16T09:13:44.315Z,3.80
2022-11-16T09:16:15.852Z,3.80
2022-11-16T09:18:44.385Z,3.80
2022-11-16T09:21:14.071Z,3.80
2022-11-16T09:23:42.144Z,3.70
2022-11-16T09:26:10.463Z,3.70
2022-11-16T09:28:38.583Z,3.80
2022-11-16T09:31:07.417Z,3.80
2022-11-16T09:33:37.036Z,3.90
2022-11-16T09:36:07.709Z,3.80
2022-11-16T09:39:13.980Z,3.90
2022-11-16T09:41:40.939Z,3.90
2022-11-16T09:44:12.853Z,4.00
2022-11-16T09:46:42.611Z,4.00
2022-11-16T09:49:17.205Z,4.00
2022-11-16T09:51:48.377Z,4.00
2022-11-16T09:54:19.461Z,4.00
2022-11-16T09:56:49.573Z,4.00
2022-11-16T09:59:21.634Z,4.10
2022-11-16T10:01:52.142Z,4.10
2022-11-16T10:04:23.017Z,4.10
2022-11-16T10:06:52.874Z,4.10
2022-11-16T10:09:23.075Z,4.10
2022-11-16T10:12:05.199Z,4.10
2022-11-16T10:14:41.181Z,4.10
2022-11-16T10:17:14.686Z,4.00
2022-11-16T10:19:46.848Z,4.00
2022-11-16T10:22:22.233Z,4.10
2022-11-16T10:24:57.695Z,4.10
2022-11-16T10:27:37.947Z,4.10
2022-11-16T10:30:11.020Z,4.10
2022-11-16T10:32:41.003Z,4.10
2022-11-16T10:35:14.368Z,4.10
2022-11-16T10:37:45.513Z,4.10
2022-11-16T10:40:18.639Z,4.00
2022-11-16T10:42:53.111Z,4.10
2022-11-16T10:45:23.785Z,4.10
2022-11-16T10:47:54.686Z,4.00
2022-11-16T10:50:34.304Z,4.00
2022-11-16T10:53:02.423Z,4.00
2022-11-16T10:55:32.065Z,3.90
2022-11-16T10:58:01.368Z,3.90
2022-11-16T11:00:36.616Z,3.90
2022-11-16T11:03:04.979Z,3.90
2022-11-16T11:05:33.491Z,3.90
2022-11-16T11:08:02.571Z,3.90
2022-11-16T11:10:33.349Z,3.90
2022-11-16T11:13:06.712Z,3.90
2022-11-16T11:15:34.905Z,3.80
2022-11-16T11:18:13.165Z,3.80
2022-11-16T11:20:45.097Z,3.80
2022-11-16T11:23:15.287Z,3.80
2022-11-16T11:25:50.868Z,3.90
2022-11-16T11:28:21.182Z,3.80
2022-11-16T11:30:53.621Z,3.80
2022-11-16T11:33:23.805Z,3.90
2022-11-16T11:35:58.429Z,3.90
2022-11-16T11:38:26.753Z,3.90
2022-11-16T11:41:00.237Z,3.90
2022-11-16T11:43:29.094Z,3.90
2022-11-16T11:46:03.507Z,3.90
2022-11-16T11:48:35.781Z,3.80
2022-11-16T11:51:08.344Z,3.80
2022-11-16T11:53:46.809Z,3.80
2022-11-16T11:56:16.670Z,3.80
2022-11-16T11:58:45.186Z,3.80
2022-11-16T12:01:25.531Z,3.80
2022-11-16T12:04:10.353Z,3.80
2022-11-16T12:06:43.928Z,3.80
2022-11-16T12:09:29.992Z,3.80
2022-11-16T12:12:11.816Z,3.80
2022-11-16T12:14:50.897Z,3.80
2022-11-16T12:17:22.748Z,3.70
2022-11-16T12:20:06.712Z,3.70
2022-11-16T12:22:45.268Z,3.70
2022-11-16T12:25:19.004Z,3.80
2022-11-16T12:27:53.470Z,3.70
2022-11-16T12:30:22.876Z,3.80
2022-11-16T12:33:00.889Z,3.80
2022-11-16T12:35:44.033Z,3.80
2022-11-16T12:38:28.136Z,3.80
2022-11-16T12:41:05.995Z,3.80
2022-11-16T12:43:37.989Z,3.80
2022-11-16T12:46:12.352Z,3.80
2022-11-16T12:48:56.592Z,3.80
2022-11-16T12:51:33.610Z,3.80
2022-11-16T12:54:07.541Z,3.80
2022-11-16T12:56:47.444Z,3.80
2022-11-16T12:59:28.280Z,3.80
2022-11-16T13:02:00.918Z,3.80
2022-11-16T13:04:31.648Z,3.80
2022-11-16T13:07:10.480Z,3.80
2022-11-16T13:09:41.920Z,3.80
2022-11-16T13:12:14.279Z,3.80
2022-11-16T13:14:45.780Z,3.80
2022-11-16T13:17:18.744Z,3.90
2022-11-16T13:19:49.125Z,3.90
2022-11-16T13:22:20.922Z,3.90
2022-11-16T13:24:51.296Z,3.90
2022-11-16T13:27:24.324Z,3.80
2022-11-16T13:29:58.222Z,3.80
2022-11-16T13:32:28.902Z,3.80
2022-11-16T13:34:57.326Z,3.80
2022-11-16T13:37:44.509Z,3.80
2022-11-16T13:40:21.241Z,3.80
2022-11-16T13:42:59.682Z,3.80
2022-11-16T13:45:32.608Z,3.80
2022-11-16T13:48:02.521Z,3.70
2022-11-16T13:50:37.287Z,3.70
2022-11-16T13:55:56.905Z,3.70
2022-11-16T13:58:26.215Z,3.60
2022-11-16T14:01:00.350Z,3.60
2022-11-16T14:03:30.266Z,3.50
2022-11-16T14:05:58.336Z,3.50
2022-11-16T14:08:44.705Z,3.60
2022-11-16T14:11:27.610Z,3.60
2022-11-16T14:13:55.827Z,3.60
2022-11-16T14:16:43.082Z,3.60
2022-11-16T14:19:28.846Z,3.60
2022-11-16T14:22:01.378Z,3.70
2022-11-16T14:24:31.922Z,3.70
2022-11-16T14:27:04.581Z,3.70
2022-11-16T14:29:45.422Z,3.70
2022-11-16T14:32:21.880Z,3.70
2022-11-16T14:34:51.193Z,3.70
2022-11-16T14:37:30.615Z,3.70
2022-11-16T14:40:02.404Z,3.70
2022-11-16T14:42:42.960Z,3.70
2022-11-16T14:45:24.098Z,3.70
2022-11-16T14:47:54.634Z,3.60
2022-11-16T14:50:23.612Z,3.70
2022-11-16T14:52:53.969Z,3.60
2022-11-16T14:55:22.825Z,3.60
2022-11-16T14:57:51.151Z,3.60
2022-11-16T15:00:21.463Z,3.60
2022-11-16T15:02:51.830Z,3.60
2022-11-16T15:05:22.741Z,3.60
2022-11-16T15:07:52.134Z,3.60
2022-11-16T15:10:21.472Z,3.60
2022-11-16T15:12:52.547Z,3.50
2022-11-16T15:15:23.232Z,3.50
2022-11-16T15:17:53.803Z,3.50
2022-11-16T15:20:24.688Z,3.50
2022-11-16T15:22:54.236Z,3.50
2022-11-16T15:25:26.863Z,3.60
2022-11-16T15:27:55.689Z,3.50
2022-11-16T15:30:25.406Z,3.60
2022-11-16T15:32:54.112Z,3.60
2022-11-16T15:35:24.722Z,3.50
2022-11-16T15:38:02.837Z,3.50
2022-11-16T15:40:31.390Z,3.50
2022-11-16T15:43:00.605Z,3.50
2022-11-16T15:45:29.800Z,3.50
2022-11-16T15:48:00.530Z,3.40
2022-11-16T15:50:30.339Z,3.40
2022-11-16T15:53:00.615Z,3.40
2022-11-16T15:55:31.946Z,3.30
2022-11-16T15:58:07.357Z,3.30
2022-11-16T16:00:37.737Z,3.30
2022-11-16T16:03:07.553Z,3.30
2022-11-16T16:05:41.240Z,3.30
2022-11-16T16:08:25.098Z,3.30
2022-11-16T16:10:58.744Z,3.20
2022-11-16T16:13:31.239Z,3.20
2022-11-16T16:16:12.810Z,3.20
2022-11-16T16:18:43.243Z,3.20
2022-11-16T16:21:13.997Z,3.20
2022-11-16T16:23:47.123Z,3.20
2022-11-16T16:26:15.593Z,3.20
2022-11-16T16:28:43.701Z,3.20
2022-11-16T16:31:12.309Z,3.20
2022-11-16T16:33:41.402Z,3.20
2022-11-16T16:36:15.409Z,3.20
2022-11-16T16:38:46.682Z,3.30
2022-11-16T16:41:23.993Z,3.20
2022-11-16T16:43:54.718Z,3.20
2022-11-16T16:46:23.646Z,3.10
2022-11-16T16:48:53.402Z,3.10
2022-11-16T16:51:22.551Z,3.10
2022-11-16T16:53:52.995Z,3.10
2022-11-16T16:56:21.738Z,3.10
2022-11-16T16:58:53.362Z,3.00
2022-11-16T17:01:22.399Z,3.00
2022-11-16T17:03:51.735Z,3.00
2022-11-16T17:06:21.369Z,3.00
2022-11-16T17:08:50.821Z,3.00
2022-11-16T17:11:21.986Z,3.00
2022-11-16T17:13:51.940Z,3.00
2022-11-16T17:16:22.828Z,3.00
2022-11-16T17:18:55.934Z,3.10
2022-11-16T17:21:25.148Z,3.10
2022-11-16T17:23:54.856Z,3.00
2022-11-16T17:26:29.983Z,2.90
2022-11-16T17:29:02.324Z,2.90
2022-11-16T17:31:32.029Z,2.90
2022-11-16T17:34:13.208Z,2.80
2022-11-16T17:36:50.457Z,2.80
2022-11-16T17:39:20.287Z,2.80
2022-11-16T17:41:54.666Z,2.80
2022-11-16T17:44:23.884Z,2.70
2022-11-16T17:46:53.095Z,2.70
2022-11-16T17:49:28.505Z,2.70
2022-11-16T17:51:58.368Z,2.70
2022-11-16T17:54:28.088Z,2.70
2022-11-16T17:56:58.808Z,2.80
2022-11-16T17:59:29.710Z,2.80
2022-11-16T18:01:59.434Z,2.80
2022-11-16T18:04:28.492Z,2.80
2022-11-16T18:06:58.125Z,2.90
2022-11-16T18:09:27.884Z,2.90
2022-11-16T18:11:59.194Z,2.90
2022-11-16T18:14:27.656Z,2.90
2022-11-16T18:16:56.844Z,2.90
2022-11-16T18:19:26.582Z,2.80
2022-11-16T18:21:58.599Z,2.80
2022-11-16T18:24:28.073Z,2.80
2022-11-16T18:26:59.410Z,2.80
2022-11-16T18:29:28.606Z,2.80
2022-11-16T18:32:04.311Z,2.70
2022-11-16T18:34:34.026Z,2.70
2022-11-16T18:37:03.607Z,2.70
2022-11-16T18:39:33.134Z,2.70
2022-11-16T18:42:05.056Z,2.80
2022-11-16T18:44:38.699Z,2.80
2022-11-16T18:47:07.864Z,2.80
2022-11-16T18:49:37.154Z,2.80
2022-11-16T18:52:09.029Z,2.70
2022-11-16T18:54:38.216Z,2.70
2022-11-16T18:57:08.674Z,2.60
2022-11-16T18:59:37.261Z,2.60
2022-11-16T19:02:05.510Z,2.60
2022-11-16T19:04:33.657Z,2.50
2022-11-16T19:07:01.892Z,2.50
2022-11-16T19:09:30.068Z,2.60
2022-11-16T19:11:58.279Z,2.60
2022-11-16T19:14:27.839Z,2.70
2022-11-16T19:16:57.416Z,2.70
2022-11-16T19:19:27.862Z,2.70
2022-11-16T19:21:57.139Z,2.70
2022-11-16T19:24:25.288Z,2.60
2022-11-16T19:26:53.629Z,2.60
2022-11-16T19:29:21.704Z,2.60
2022-11-16T19:31:51.210Z,2.60
2022-11-16T19:34:20.520Z,2.60
2022-11-16T19:36:48.693Z,2.50
2022-11-16T19:39:19.928Z,2.50
2022-11-16T19:41:48.782Z,2.50
2022-11-16T19:44:16.885Z,2.60
2022-11-16T19:46:45.183Z,2.60
2022-11-16T19:49:20.110Z,2.60
2022-11-16T19:51:48.537Z,2.70
2022-11-16T19:54:16.697Z,2.70
2022-11-16T19:56:49.321Z,2.80
2022-11-16T19:59:20.232Z,2.80
2022-11-16T20:01:48.425Z,2.80
2022-11-16T20:04:17.980Z,2.80
2022-11-16T20:06:46.204Z,2.80
2022-11-16T20:09:14.350Z,2.80
2022-11-16T20:11:46.186Z,2.90
2022-11-16T20:14:15.261Z,2.90
2022-11-16T20:16:44.194Z,2.90
2022-11-16T20:19:12.328Z,2.80
2022-11-16T20:21:42.657Z,2.80
2022-11-16T20:24:11.962Z,2.70
2022-11-16T20:26:42.643Z,2.70
2022-11-16T20:29:11.544Z,2.70
2022-11-16T20:31:42.658Z,2.70
2022-11-16T20:34:14.016Z,2.60
2022-11-16T20:36:44.635Z,2.70
2022-11-16T20:39:13.848Z,2.70
2022-11-16T20:41:43.074Z,2.70
2022-11-16T20:44:16.382Z,2.70
2022-11-16T20:46:45.580Z,2.80
2022-11-16T20:49:13.681Z,2.80
2022-11-16T20:51:43.327Z,2.80
2022-11-16T20:54:11.677Z,2.80
2022-11-16T20:56:39.713Z,2.80
2022-11-16T20:59:08.019Z,2.80
2022-11-16T21:01:36.826Z,2.80
2022-11-16T21:04:05.969Z,2.70
2022-11-16T21:06:34.568Z,2.70
2022-11-16T21:09:04.838Z,2.70
2022-11-16T21:11:53.979Z,2.70
2022-11-16T21:14:21.194Z,2.70
2022-11-16T21:16:49.316Z,2.70
2022-11-16T21:19:20.805Z,2.80
2022-11-16T21:21:48.853Z,2.80
2022-11-16T21:24:18.421Z,2.80
2022-11-16T21:26:46.728Z,2.80
2022-11-16T21:29:14.769Z,2.80
2022-11-16T21:31:43.020Z,2.90
2022-11-16T21:34:12.348Z,2.80
2022-11-16T21:36:44.748Z,2.80
2022-11-16T21:39:16.117Z,2.80
2022-11-16T21:41:45.733Z,2.80
2022-11-16T21:44:13.841Z,2.80
2022-11-16T21:46:42.046Z,2.80
2022-11-16T21:49:10.114Z,2.80
2022-11-16T21:51:38.326Z,2.80
2022-11-16T21:54:06.511Z,2.80
2022-11-16T21:56:34.672Z,2.80
2022-11-16T21:59:04.274Z,2.80
2022-11-16T22:01:52.409Z,2.80
2022-11-16T22:04:37.942Z,2.80
2022-11-16T22:07:23.187Z,2.80
2022-11-16T22:09:52.381Z,2.80
2022-11-16T22:12:20.465Z,2.80
2022-11-16T22:14:49.975Z,2.80
2022-11-16T22:17:18.197Z,2.80
2022-11-16T22:19:49.336Z,2.80
2022-11-16T22:22:17.423Z,2.80
2022-11-16T22:24:45.600Z,2.80
2022-11-16T22:27:14.039Z,2.80
2022-11-16T22:29:42.138Z,2.80
2022-11-16T22:32:11.885Z,2.80
2022-11-16T22:34:40.105Z,2.80
2022-11-16T22:37:08.198Z,2.80
2022-11-16T22:39:36.752Z,2.80
2022-11-16T22:42:05.093Z,2.80
2022-11-16T22:44:33.349Z,2.90
2022-11-16T22:47:01.417Z,2.90
2022-11-16T22:49:30.916Z,2.90
2022-11-16T22:51:59.180Z,2.90
2022-11-16T22:54:28.781Z,2.90
2022-11-16T22:56:57.071Z,2.90
2022-11-16T22:59:25.327Z,2.90
2022-11-16T23:01:53.389Z,2.90
2022-11-16T23:04:21.566Z,2.90
2022-11-16T23:06:51.328Z,2.90
2022-11-16T23:09:19.404Z,2.90
2022-11-16T23:12:13.570Z,2.90
2022-11-16T23:14:58.825Z,2.90
2022-11-16T23:17:26.897Z,2.90
2022-11-16T23:20:17.452Z,2.90
2022-11-16T23:23:04.860Z,2.90
2022-11-16T23:25:50.628Z,3.00
2022-11-16T23:28:20.476Z,3.00
2022-11-16T23:30:48.583Z,3.00
2022-11-16T23:33:16.776Z,2.90
2022-11-16T23:35:44.998Z,2.90
2022-11-16T23:38:14.461Z,2.90
2022-11-16T23:40:42.642Z,2.90
2022-11-16T23:43:28.786Z,2.90
2022-11-16T23:45:56.870Z,3.00
2022-11-16T23:48:25.161Z,3.00
2022-11-16T23:50:53.240Z,2.90
2022-11-16T23:53:28.381Z,2.90
2022-11-16T23:56:05.770Z,2.90
2022-11-16T23:58:34.323Z,2.90
